createdAt,value
2022-08-10T00:01:54.128Z,71.45
2022-08-10T00:04:23.046Z,71.84
2022-08-10T00:06:55.241Z,72.53
2022-08-10T00:09:23.434Z,72.21
2022-08-10T00:11:50.897Z,72.81
2022-08-10T00:14:18.545Z,72.77
2022-08-10T00:16:45.577Z,71.71
2022-08-10T00:19:12.656Z,73.50
2022-08-10T00:21:43.653Z,72.72
2022-08-10T00:24:10.684Z,73.45
2022-08-10T00:27:51.631Z,72.38
2022-08-10T00:29:24.925Z,73.03
2022-08-10T00:31:57.910Z,72.49
2022-08-10T00:34:30.843Z,74.65
2022-08-10T00:36:58.664Z,73.89
2022-08-10T00:39:26.918Z,74.40
2022-08-10T00:42:02.321Z,74.39
2022-08-10T00:44:37.215Z,74.73
2022-08-10T00:47:05.193Z,74.89
2022-08-10T00:49:32.204Z,75.93
2022-08-10T00:52:00.170Z,76.36
2022-08-10T00:54:27.943Z,75.74
2022-08-10T00:57:15.727Z,75.61
2022-08-10T00:59:57.609Z,76.46
2022-08-10T01:02:25.661Z,76.44
2022-08-10T01:05:00.267Z,75.63
2022-08-10T01:08:02.301Z,76.86
2022-08-10T01:10:46.420Z,76.27
2022-08-10T01:13:24.173Z,77.75
2022-08-10T01:15:59.228Z,77.56
2022-08-10T01:18:46.726Z,76.56
2022-08-10T01:21:32.734Z,77.61
2022-08-10T01:24:05.770Z,77.26
2022-08-10T01:26:41.699Z,77.62
2022-08-10T01:29:30.578Z,77.69
2022-08-10T01:32:07.154Z,77.87
2022-08-10T01:34:56.753Z,78.82
2022-08-10T01:37:30.205Z,78.81
2022-08-10T01:42:32.960Z,79.75
2022-08-10T01:45:04.870Z,79.29
2022-08-10T01:47:54.607Z,79.56
2022-08-10T01:50:32.385Z,79.52
2022-08-10T01:53:09.367Z,79.95
2022-08-10T01:55:38.147Z,78.74
2022-08-10T01:58:07.209Z,78.20
2022-08-10T02:00:37.670Z,78.22
2022-08-10T02:03:07.107Z,78.05
2022-08-10T02:05:39.065Z,79.62
2022-08-10T02:08:11.534Z,79.06
2022-08-10T02:10:42.534Z,80.08
2022-08-10T02:13:10.784Z,80.06
2022-08-10T02:16:02.323Z,79.45
2022-08-10T02:18:30.851Z,79.71
2022-08-10T02:21:02.911Z,79.68
2022-08-10T02:23:32.214Z,80.88
2022-08-10T02:26:01.545Z,80.93
2022-08-10T02:28:33.238Z,81.59
2022-08-10T02:31:11.746Z,81.38
2022-08-10T02:33:56.659Z,81.52
2022-08-10T02:36:29.312Z,82.44
2022-08-10T02:39:01.875Z,82.09
2022-08-10T02:45:02.364Z,82.46
2022-08-10T02:45:19.469Z,82.89
2022-08-10T02:47:51.086Z,83.97
2022-08-10T02:50:28.150Z,84.87
2022-08-10T02:53:54.355Z,84.39
2022-08-10T02:56:28.447Z,85.91
2022-08-10T02:59:10.704Z,85.35
2022-08-10T03:01:46.378Z,86.01
2022-08-10T03:04:57.399Z,86.64
2022-08-10T03:07:16.828Z,86.85
2022-08-10T03:09:47.448Z,86.23
2022-08-10T03:12:38.390Z,86.82
2022-08-10T03:15:06.691Z,87.10
2022-08-10T03:17:34.402Z,86.85
2022-08-10T03:20:35.902Z,86.97
2022-08-10T03:22:51.163Z,87.71
2022-08-10T03:25:21.077Z,87.98
2022-08-10T03:27:49.643Z,87.35
2022-08-10T03:30:28.119Z,87.42
2022-08-10T03:33:01.435Z,87.76
2022-08-10T03:35:29.594Z,87.38
2022-08-10T03:37:59.525Z,88.28
2022-08-10T03:40:46.056Z,88.43
2022-08-10T03:43:18.553Z,87.91
2022-08-10T03:45:55.965Z,87.88
2022-08-10T03:48:44.592Z,88.94
2022-08-10T03:51:14.661Z,88.79
2022-08-10T03:54:05.814Z,88.37
2022-08-10T03:56:32.422Z,88.60
2022-08-10T03:59:01.174Z,88.37
2022-08-10T04:02:45.178Z,89.41
2022-08-10T04:04:23.677Z,88.84
2022-08-10T04:06:57.960Z,89.47
2022-08-10T04:09:53.491Z,89.14
2022-08-10T04:12:21.786Z,88.92
2022-08-10T04:14:50.790Z,88.72
2022-08-10T04:18:02.988Z,87.86
2022-08-10T04:20:29.902Z,87.18
2022-08-10T04:23:07.316Z,88.42
2022-08-10T04:25:35.282Z,88.53
2022-08-10T04:28:03.931Z,87.15
2022-08-10T04:30:32.366Z,87.17
2022-08-10T04:33:02.105Z,86.89
2022-08-10T04:35:30.250Z,87.01
2022-08-10T04:37:59.110Z,87.59
2022-08-10T04:40:30.484Z,86.98
2022-08-10T04:43:12.391Z,86.11
2022-08-10T04:45:49.123Z,86.23
2022-08-10T04:48:42.891Z,84.82
2022-08-10T04:51:17.723Z,85.08
2022-08-10T04:54:05.071Z,85.07
2022-08-10T04:56:36.441Z,83.75
2022-08-10T04:59:05.105Z,83.50
2022-08-10T05:02:28.382Z,84.35
2022-08-10T05:04:35.404Z,84.05
2022-08-10T05:07:10.455Z,82.99
2022-08-10T05:10:02.032Z,83.66
2022-08-10T05:12:27.690Z,82.99
2022-08-10T05:14:55.123Z,83.33
2022-08-10T05:17:22.895Z,82.45
2022-08-10T05:20:03.454Z,82.86
2022-08-10T05:22:35.446Z,82.93
2022-08-10T05:25:03.900Z,82.75
2022-08-10T05:27:31.026Z,82.58
2022-08-10T05:30:02.329Z,82.50
2022-08-10T05:32:56.435Z,81.43
2022-08-10T05:35:22.042Z,81.87
2022-08-10T05:38:11.543Z,81.01
2022-08-10T05:40:40.897Z,79.58
2022-08-10T05:43:10.023Z,80.18
2022-08-10T05:46:17.165Z,80.58
2022-08-10T05:48:56.457Z,78.39
2022-08-10T05:51:12.701Z,78.30
2022-08-10T05:54:02.031Z,77.16
2022-08-10T05:56:27.062Z,76.72
2022-08-10T05:59:16.013Z,75.55
2022-08-10T06:02:33.231Z,74.49
2022-08-10T06:05:03.589Z,74.91
2022-08-10T06:07:31.205Z,76.08
2022-08-10T06:10:00.745Z,74.54
2022-08-10T06:12:30.501Z,74.77
2022-08-10T06:15:05.929Z,74.34
2022-08-10T06:17:38.274Z,74.46
2022-08-10T06:20:05.987Z,73.60
2022-08-10T06:22:33.829Z,72.37
2022-08-10T06:25:37.815Z,70.36
2022-08-10T06:27:50.666Z,69.24
2022-08-10T06:30:20.971Z,68.63
2022-08-10T06:32:51.511Z,68.31
2022-08-10T06:35:19.986Z,67.87
2022-08-10T06:37:50.792Z,67.56
2022-08-10T06:40:20.137Z,66.95
2022-08-10T06:42:49.982Z,66.60
2022-08-10T06:45:23.228Z,66.71
2022-08-10T06:48:02.230Z,66.03
2022-08-10T06:50:56.088Z,65.66
2022-08-10T06:53:53.894Z,65.13
2022-08-10T06:56:37.650Z,64.36
2022-08-10T06:59:21.845Z,64.68
2022-08-10T07:02:24.407Z,64.07
2022-08-10T07:05:06.344Z,63.32
2022-08-10T07:07:38.889Z,62.75
2022-08-10T07:10:08.027Z,62.54
2022-08-10T07:12:37.962Z,61.92
2022-08-10T07:15:08.517Z,61.20
2022-08-10T07:17:39.506Z,60.82
2022-08-10T07:20:12.038Z,59.83
2022-08-10T07:23:08.102Z,59.02
2022-08-10T07:25:29.484Z,57.80
2022-08-10T07:28:01.777Z,57.21
2022-08-10T07:30:31.399Z,56.42
2022-08-10T07:33:01.154Z,55.41
2022-08-10T07:35:34.645Z,55.73
2022-08-10T07:38:09.045Z,54.87
2022-08-10T07:40:36.916Z,55.30
2022-08-10T07:43:05.277Z,54.41
2022-08-10T07:45:35.280Z,53.63
2022-08-10T07:48:08.118Z,53.33
2022-08-10T07:50:38.799Z,50.31
2022-08-10T07:53:10.062Z,49.88
2022-08-10T07:56:07.606Z,49.76
2022-08-10T07:58:34.484Z,47.91
2022-08-10T08:01:01.706Z,47.66
2022-08-10T08:03:30.766Z,46.58
2022-08-10T08:06:03.379Z,46.74
2022-08-10T08:08:38.668Z,46.49
2022-08-10T08:11:06.794Z,44.86
2022-08-10T08:13:34.904Z,44.55
2022-08-10T08:16:20.403Z,44.25
2022-08-10T08:19:16.513Z,43.75
2022-08-10T08:24:08.088Z,43.34
2022-08-10T08:24:31.005Z,43.26
2022-08-10T08:27:02.822Z,43.79
2022-08-10T08:29:35.057Z,41.90
2022-08-10T08:32:06.372Z,41.54
2022-08-10T08:34:37.374Z,41.47
2022-08-10T08:37:07.219Z,41.12
2022-08-10T08:39:36.751Z,41.76
2022-08-10T08:42:35.340Z,41.28
2022-08-10T08:45:31.501Z,40.27
2022-08-10T08:48:12.561Z,42.16
2022-08-10T08:51:01.733Z,40.89
2022-08-10T08:54:07.675Z,40.57
2022-08-10T08:56:49.585Z,41.34
2022-08-10T08:59:39.146Z,39.88
2022-08-10T09:02:18.131Z,39.70
2022-08-10T09:05:20.763Z,39.07
2022-08-10T09:08:03.216Z,39.95
2022-08-10T09:10:37.740Z,39.24
2022-08-10T09:13:13.980Z,39.02
2022-08-10T09:15:58.624Z,39.61
2022-08-10T09:19:03.587Z,38.69
2022-08-10T09:21:43.180Z,39.03
2022-08-10T09:24:35.821Z,38.30
2022-08-10T09:27:14.718Z,37.91
2022-08-10T09:29:57.109Z,38.79
2022-08-10T09:36:16.742Z,38.30
2022-08-10T09:36:28.401Z,37.90
2022-08-10T09:39:02.588Z,39.41
2022-08-10T09:41:52.036Z,37.91
2022-08-10T09:44:27.640Z,37.35
2022-08-10T09:47:59.996Z,37.49
2022-08-10T09:54:15.951Z,36.93
2022-08-10T09:57:12.005Z,36.41
2022-08-10T10:00:08.997Z,36.14
2022-08-10T10:02:45.249Z,36.92
2022-08-10T10:05:25.221Z,36.58
2022-08-10T10:08:24.252Z,35.52
2022-08-10T10:10:57.601Z,35.40
2022-08-10T10:14:03.764Z,36.61
2022-08-10T10:16:32.692Z,36.28
2022-08-10T10:19:25.028Z,37.07
2022-08-10T10:22:10.911Z,35.92
2022-08-10T10:25:19.574Z,36.07
2022-08-10T10:28:09.281Z,35.54
2022-08-10T10:30:45.816Z,37.31
2022-08-10T10:33:19.310Z,35.96
2022-08-10T10:35:54.980Z,35.58
2022-08-10T10:38:27.094Z,35.33
2022-08-10T10:41:08.566Z,35.46
2022-08-10T10:43:56.058Z,36.14
2022-08-10T10:46:57.866Z,34.86
2022-08-10T10:49:50.460Z,34.51
2022-08-10T10:52:29.219Z,35.25
2022-08-10T10:55:15.051Z,35.33
2022-08-10T10:57:58.622Z,34.83
2022-08-10T11:00:37.198Z,33.70
2022-08-10T11:03:34.046Z,35.54
2022-08-10T11:06:14.473Z,33.99
2022-08-10T11:08:47.112Z,36.28
2022-08-10T11:12:00.649Z,35.34
2022-08-10T11:14:44.358Z,33.79
2022-08-10T11:17:18.698Z,35.89
2022-08-10T11:20:04.196Z,35.04
2022-08-10T11:22:44.574Z,33.58
2022-08-10T11:25:58.791Z,33.67
2022-08-10T11:28:38.689Z,34.88
2022-08-10T11:31:35.950Z,33.40
2022-08-10T11:34:49.033Z,32.20
2022-08-10T11:37:22.497Z,33.97
2022-08-10T11:40:01.120Z,32.49
2022-08-10T11:42:43.262Z,32.50
2022-08-10T11:45:15.350Z,32.57
2022-08-10T11:47:48.029Z,32.26
2022-08-10T11:50:28.380Z,32.49
2022-08-10T11:53:22.488Z,33.30
2022-08-10T11:55:57.281Z,32.27
2022-08-10T11:58:47.225Z,33.83
2022-08-10T12:01:17.582Z,33.33
2022-08-10T12:03:46.463Z,34.01
2022-08-10T12:06:39.321Z,32.96
2022-08-10T12:10:10.644Z,34.58
2022-08-10T12:11:59.170Z,32.92
2022-08-10T12:14:33.485Z,33.36
2022-08-10T12:17:08.001Z,32.98
2022-08-10T12:20:03.881Z,33.04
2022-08-10T12:22:38.655Z,32.71
2022-08-10T12:25:11.533Z,33.33
2022-08-10T12:27:48.615Z,31.88
2022-08-10T12:30:17.014Z,32.50
2022-08-10T12:33:02.670Z,32.92
2022-08-10T12:35:56.081Z,32.49
2022-08-10T12:38:40.314Z,32.46
2022-08-10T12:41:19.162Z,32.30
2022-08-10T12:44:09.522Z,31.90
2022-08-10T12:46:48.499Z,31.37
2022-08-10T12:49:36.903Z,32.57
2022-08-10T12:52:09.940Z,32.31
2022-08-10T12:54:38.057Z,35.46
2022-08-10T12:57:11.477Z,34.56
2022-08-10T12:59:43.780Z,33.27
2022-08-10T13:02:18.635Z,32.82
2022-08-10T13:04:49.287Z,31.29
2022-08-10T13:08:24.258Z,33.06
2022-08-10T13:10:17.413Z,32.43
2022-08-10T13:12:48.761Z,32.58
2022-08-10T13:15:43.168Z,33.42
2022-08-10T13:18:06.584Z,33.57
2022-08-10T13:20:51.522Z,31.51
2022-08-10T13:23:25.043Z,32.66
2022-08-10T13:25:54.949Z,32.10
2022-08-10T13:28:37.424Z,31.59
2022-08-10T13:31:11.633Z,31.36
2022-08-10T13:34:38.863Z,31.23
2022-08-10T13:36:40.242Z,30.16
2022-08-10T13:39:08.746Z,29.63
2022-08-10T13:41:39.922Z,32.76
2022-08-10T13:44:09.565Z,32.47
2022-08-10T13:46:40.266Z,31.22
2022-08-10T13:49:09.541Z,32.48
2022-08-10T13:51:54.105Z,33.39
2022-08-10T13:54:29.027Z,30.77
2022-08-10T13:56:57.694Z,31.84
2022-08-10T14:00:34.904Z,31.24
2022-08-10T14:02:22.800Z,31.28
2022-08-10T14:04:50.513Z,30.97
2022-08-10T14:07:18.231Z,31.00
2022-08-10T14:09:47.658Z,31.97
2022-08-10T14:12:16.769Z,31.54
2022-08-10T14:14:52.744Z,29.63
2022-08-10T14:17:22.580Z,30.07
2022-08-10T14:19:58.841Z,30.22
2022-08-10T14:22:30.088Z,29.99
2022-08-10T14:25:05.527Z,28.49
2022-08-10T14:28:02.172Z,30.95
2022-08-10T14:30:23.194Z,30.25
2022-08-10T14:33:00.313Z,29.00
2022-08-10T14:36:21.052Z,30.00
2022-08-10T14:38:20.779Z,28.86
2022-08-10T14:40:53.078Z,28.55
2022-08-10T14:43:40.577Z,30.55
2022-08-10T14:46:11.531Z,29.10
2022-08-10T14:48:46.839Z,30.68
2022-08-10T14:51:17.873Z,31.05
2022-08-10T14:53:54.297Z,31.05
2022-08-10T14:56:27.263Z,32.52
2022-08-10T14:59:06.092Z,28.31
2022-08-10T15:02:39.136Z,28.82
2022-08-10T15:04:26.559Z,28.57
2022-08-10T15:06:57.532Z,30.36
2022-08-10T15:09:59.265Z,29.03
2022-08-10T15:12:27.201Z,29.09
2022-08-10T15:15:00.666Z,28.96
2022-08-10T15:17:39.446Z,28.29
2022-08-10T15:20:20.394Z,30.17
2022-08-10T15:22:55.651Z,29.03
2022-08-10T15:25:26.117Z,29.69
2022-08-10T15:28:06.478Z,26.35
2022-08-10T15:30:49.569Z,26.20
2022-08-10T15:34:03.568Z,27.24
2022-08-10T15:37:03.889Z,28.10
2022-08-10T15:40:24.148Z,27.53
2022-08-10T15:42:34.062Z,27.17
2022-08-10T15:45:02.050Z,26.86
2022-08-10T15:47:46.226Z,26.39
2022-08-10T15:50:19.671Z,26.59
2022-08-10T15:53:01.623Z,26.42
2022-08-10T15:55:44.362Z,26.48
2022-08-10T15:58:39.013Z,26.33
2022-08-10T16:02:14.907Z,25.69
2022-08-10T16:04:31.593Z,25.15
2022-08-10T16:07:03.806Z,25.71
2022-08-10T16:10:22.014Z,25.30
2022-08-10T16:12:34.451Z,24.25
2022-08-10T16:15:15.230Z,25.29
2022-08-10T16:17:56.155Z,23.35
2022-08-10T16:20:53.407Z,22.68
2022-08-10T16:23:30.273Z,21.56
2022-08-10T16:26:14.829Z,22.39
2022-08-10T16:28:47.798Z,21.08
2022-08-10T16:31:20.055Z,21.46
2022-08-10T16:33:53.935Z,21.01
2022-08-10T16:36:28.911Z,20.68
2022-08-10T16:38:57.538Z,20.87
2022-08-10T16:42:05.314Z,20.85
2022-08-10T16:44:19.678Z,20.71
2022-08-10T16:46:48.073Z,20.16
2022-08-10T16:49:17.920Z,20.52
2022-08-10T16:51:50.581Z,19.55
2022-08-10T16:54:26.832Z,19.83
2022-08-10T16:57:03.550Z,19.90
2022-08-10T16:59:35.413Z,19.13
2022-08-10T17:02:04.306Z,19.67
2022-08-10T17:04:33.809Z,19.72
2022-08-10T17:07:07.187Z,19.50
2022-08-10T17:09:38.548Z,18.87
2022-08-10T17:12:11.229Z,19.36
2022-08-10T17:14:40.841Z,20.32
2022-08-10T17:17:20.599Z,19.54
2022-08-10T17:19:49.393Z,19.63
2022-08-10T17:22:19.565Z,19.76
2022-08-10T17:24:52.675Z,19.55
2022-08-10T17:28:05.822Z,20.67
2022-08-10T17:30:16.136Z,20.60
2022-08-10T17:33:05.492Z,20.01
2022-08-10T17:35:34.143Z,20.45
2022-08-10T17:38:15.170Z,20.98
2022-08-10T17:41:12.853Z,23.29
2022-08-10T17:44:01.285Z,25.22
2022-08-10T17:46:40.231Z,26.85
2022-08-10T17:49:13.360Z,28.72
2022-08-10T17:51:42.567Z,29.66
2022-08-10T17:54:38.206Z,30.56
2022-08-10T17:57:11.070Z,30.73
2022-08-10T17:59:39.133Z,31.14
2022-08-10T18:02:13.548Z,32.26
2022-08-10T18:04:48.568Z,32.09
2022-08-10T18:07:16.886Z,32.14
2022-08-10T18:09:50.348Z,32.12
2022-08-10T18:12:32.007Z,34.20
2022-08-10T18:15:11.897Z,32.94
2022-08-10T18:17:46.221Z,33.52
2022-08-10T18:20:16.360Z,33.90
2022-08-10T18:22:50.507Z,33.42
2022-08-10T18:25:22.167Z,33.84
2022-08-10T18:28:04.352Z,34.57
2022-08-10T18:30:45.397Z,34.37
2022-08-10T18:33:14.364Z,34.88
2022-08-10T18:35:44.329Z,35.20
2022-08-10T18:38:13.243Z,34.76
2022-08-10T18:40:44.933Z,35.64
2022-08-10T18:44:05.557Z,36.20
2022-08-10T18:46:06.805Z,35.92
2022-08-10T18:48:40.610Z,35.73
2022-08-10T18:51:09.214Z,36.03
2022-08-10T18:54:04.286Z,35.59
2022-08-10T18:57:00.109Z,35.87
2022-08-10T19:00:03.957Z,36.08
2022-08-10T19:02:59.896Z,35.83
2022-08-10T19:05:33.993Z,36.30
2022-08-10T19:08:31.157Z,35.62
2022-08-10T19:11:44.004Z,36.41
2022-08-10T19:14:32.846Z,36.63
2022-08-10T19:17:25.942Z,37.18
2022-08-10T19:20:32.094Z,36.65
2022-08-10T19:23:22.999Z,37.04
2022-08-10T19:26:39.328Z,36.91
2022-08-10T19:28:52.954Z,37.73
2022-08-10T19:31:45.071Z,38.16
2022-08-10T19:34:29.236Z,38.47
2022-08-10T19:37:18.709Z,39.02
2022-08-10T19:40:09.834Z,39.34
2022-08-10T19:42:43.970Z,39.74
2022-08-10T19:45:56.076Z,40.49
2022-08-10T19:48:44.177Z,42.12
2022-08-10T19:51:16.404Z,44.16
2022-08-10T19:54:02.143Z,42.98
2022-08-10T19:56:57.912Z,42.80
2022-08-10T20:00:17.175Z,43.39
2022-08-10T20:02:21.894Z,43.58
2022-08-10T20:05:02.471Z,43.14
2022-08-10T20:07:39.734Z,43.67
2022-08-10T20:10:28.049Z,44.72
2022-08-10T20:13:02.540Z,44.73
2022-08-10T20:15:41.858Z,45.52
2022-08-10T20:18:23.207Z,45.20
2022-08-10T20:21:00.823Z,45.50
2022-08-10T20:23:35.254Z,46.33
2022-08-10T20:26:24.670Z,46.52
2022-08-10T20:29:08.935Z,46.29
2022-08-10T20:31:46.442Z,47.44
2022-08-10T20:34:19.364Z,46.70
2022-08-10T20:36:55.421Z,46.85
2022-08-10T20:39:49.751Z,47.56
2022-08-10T20:42:26.551Z,47.41
2022-08-10T20:45:04.310Z,47.29
2022-08-10T20:47:54.565Z,46.76
2022-08-10T20:50:27.941Z,47.99
2022-08-10T20:53:01.323Z,48.05
2022-08-10T20:55:52.566Z,48.50
2022-08-10T20:58:37.836Z,48.54
2022-08-10T21:01:13.014Z,49.44
2022-08-10T21:03:58.455Z,49.26
2022-08-10T21:07:28.269Z,49.52
2022-08-10T21:10:02.762Z,49.28
2022-08-10T21:12:55.371Z,50.53
2022-08-10T21:15:41.784Z,49.81
2022-08-10T21:18:33.511Z,50.37
2022-08-10T21:21:08.320Z,50.79
2022-08-10T21:23:40.033Z,50.58
2022-08-10T21:26:17.912Z,51.67
2022-08-10T21:29:19.632Z,50.97
2022-08-10T21:32:30.198Z,51.13
2022-08-10T21:35:08.543Z,52.31
2022-08-10T21:37:56.836Z,52.71
2022-08-10T21:41:18.142Z,52.27
2022-08-10T21:44:15.396Z,52.70
2022-08-10T21:47:41.692Z,53.15
2022-08-10T21:50:33.715Z,53.29
2022-08-10T21:53:44.829Z,53.59
2022-08-10T21:56:36.814Z,53.98
2022-08-10T21:59:45.995Z,54.75
2022-08-10T22:02:50.357Z,54.78
2022-08-10T22:05:44.647Z,54.50
2022-08-10T22:08:35.732Z,55.05
2022-08-10T22:11:24.977Z,54.84
2022-08-10T22:14:11.034Z,55.80
2022-08-10T22:18:00.077Z,56.48
2022-08-10T22:20:26.963Z,56.59
2022-08-10T22:23:25.022Z,56.37
2022-08-10T22:26:35.175Z,56.36
2022-08-10T22:29:42.798Z,57.18
2022-08-10T22:32:55.915Z,56.96
2022-08-10T22:36:11.101Z,58.15
2022-08-10T22:39:11.366Z,57.94
2022-08-10T22:42:21.182Z,58.70
2022-08-10T22:45:10.510Z,58.89
2022-08-10T22:47:56.202Z,59.17
2022-08-10T22:50:28.210Z,59.44
2022-08-10T22:53:04.788Z,59.78
2022-08-10T22:55:57.136Z,58.90
2022-08-10T22:58:38.923Z,59.48
2022-08-10T23:01:36.774Z,59.41
2022-08-10T23:04:11.111Z,59.57
2022-08-10T23:06:40.283Z,60.53
2022-08-10T23:09:09.847Z,60.93
2022-08-10T23:11:41.221Z,61.26
2022-08-10T23:14:11.213Z,61.38
2022-08-10T23:17:08.950Z,61.68
2022-08-10T23:19:45.304Z,61.76
2022-08-10T23:22:15.132Z,61.87
2022-08-10T23:24:45.113Z,61.94
2022-08-10T23:27:38.797Z,62.82
2022-08-10T23:30:09.681Z,63.00
2022-08-10T23:32:43.978Z,62.98
2022-08-10T23:36:29.786Z,62.69
2022-08-10T23:38:01.730Z,63.00
2022-08-10T23:40:29.081Z,63.38
2022-08-10T23:42:57.398Z,64.59
2022-08-10T23:45:27.670Z,64.67
2022-08-10T23:48:01.088Z,64.95
2022-08-10T23:50:28.909Z,65.95
2022-08-10T23:53:01.077Z,65.40
2022-08-10T23:55:49.106Z,64.88
2022-08-10T23:58:31.792Z,66.33
